Terminal Aerodrome Forecast
Issued by NWS

Home | Current Version | Previous Version | Graphics & Text | Print | Product List | Glossary On
Versions: 1 2 3 4 5 6 7 8 9 10 11 12 13 14
780
FTUS43 KMPX 220329 AAA
TAFRNH
TAF AMD
KRNH 220329Z 2203/2224 30005KT P6SM FEW020 BKN200
      TEMPO 2203/2205 BKN020
     FM220800 30005KT P6SM SKC
     FM221600 32013G22KT P6SM SKC=

USA.gov is the U.S. government's official web portal to all federal, state and local government web resources and services.